sensor_id;sensor_type;location;lat;lon;timestamp;temperature;humidity
49132;DHT22;35149;51.196;6.204;2023-04-24T00:00:23;14.00;61.40
49132;DHT22;35149;51.196;6.204;2023-04-24T00:02:58;14.00;61.40
49132;DHT22;35149;51.196;6.204;2023-04-24T00:05:32;14.00;61.60
49132;DHT22;35149;51.196;6.204;2023-04-24T00:08:02;14.00;61.60
49132;DHT22;35149;51.196;6.204;2023-04-24T00:10:31;14.00;61.60
49132;DHT22;35149;51.196;6.204;2023-04-24T00:13:21;13.90;61.70
49132;DHT22;35149;51.196;6.204;2023-04-24T00:15:55;13.90;61.60
49132;DHT22;35149;51.196;6.204;2023-04-24T00:18:35;13.90;61.60
49132;DHT22;35149;51.196;6.204;2023-04-24T00:21:20;13.90;61.40
49132;DHT22;35149;51.196;6.204;2023-04-24T00:23:59;13.90;61.40
49132;DHT22;35149;51.196;6.204;2023-04-24T00:26:35;13.80;61.40
49132;DHT22;35149;51.196;6.204;2023-04-24T00:29:11;13.80;61.40
49132;DHT22;35149;51.196;6.204;2023-04-24T00:31:47;13.80;61.40
49132;DHT22;35149;51.196;6.204;2023-04-24T00:34:15;13.80;61.50
49132;DHT22;35149;51.196;6.204;2023-04-24T00:36:47;13.80;61.50
49132;DHT22;35149;51.196;6.204;2023-04-24T00:39:25;13.80;61.60
49132;DHT22;35149;51.196;6.204;2023-04-24T00:41:59;13.70;61.50
49132;DHT22;35149;51.196;6.204;2023-04-24T00:44:28;13.70;61.70
49132;DHT22;35149;51.196;6.204;2023-04-24T00:47:04;13.70;61.70
49132;DHT22;35149;51.196;6.204;2023-04-24T00:49:45;13.70;61.90
49132;DHT22;35149;51.196;6.204;2023-04-24T00:52:15;13.70;62.10
49132;DHT22;35149;51.196;6.204;2023-04-24T00:54:46;13.70;62.10
49132;DHT22;35149;51.196;6.204;2023-04-24T00:57:29;13.70;62.20
49132;DHT22;35149;51.196;6.204;2023-04-24T01:00:15;13.70;62.10
49132;DHT22;35149;51.196;6.204;2023-04-24T01:02:57;13.70;62.20
49132;DHT22;35149;51.196;6.204;2023-04-24T01:05:37;13.70;62.20
49132;DHT22;35149;51.196;6.204;2023-04-24T01:08:07;13.70;63.00
49132;DHT22;35149;51.196;6.204;2023-04-24T01:10:46;13.70;62.20
49132;DHT22;35149;51.196;6.204;2023-04-24T01:13:24;13.70;62.20
49132;DHT22;35149;51.196;6.204;2023-04-24T01:15:53;13.70;62.30
49132;DHT22;35149;51.196;6.204;2023-04-24T01:18:26;13.70;62.20
49132;DHT22;35149;51.196;6.204;2023-04-24T01:21:02;13.70;62.40
49132;DHT22;35149;51.196;6.204;2023-04-24T01:23:33;13.70;62.40
49132;DHT22;35149;51.196;6.204;2023-04-24T01:26:02;13.60;62.20
49132;DHT22;35149;51.196;6.204;2023-04-24T01:28:44;13.60;62.30
49132;DHT22;35149;51.196;6.204;2023-04-24T01:31:21;13.60;63.20
49132;DHT22;35149;51.196;6.204;2023-04-24T01:33:52;13.60;62.50
49132;DHT22;35149;51.196;6.204;2023-04-24T01:36:24;13.60;62.40
49132;DHT22;35149;51.196;6.204;2023-04-24T01:38:55;13.60;62.40
49132;DHT22;35149;51.196;6.204;2023-04-24T01:41:25;13.60;62.50
49132;DHT22;35149;51.196;6.204;2023-04-24T01:44:11;13.60;62.40
49132;DHT22;35149;51.196;6.204;2023-04-24T01:46:51;13.50;62.30
49132;DHT22;35149;51.196;6.204;2023-04-24T01:49:40;13.50;62.50
49132;DHT22;35149;51.196;6.204;2023-04-24T01:52:15;13.50;62.50
49132;DHT22;35149;51.196;6.204;2023-04-24T01:55:09;13.50;62.40
49132;DHT22;35149;51.196;6.204;2023-04-24T01:57:49;13.50;62.40
49132;DHT22;35149;51.196;6.204;2023-04-24T02:00:22;13.50;62.60
49132;DHT22;35149;51.196;6.204;2023-04-24T02:02:56;13.50;62.60
49132;DHT22;35149;51.196;6.204;2023-04-24T02:05:28;13.40;62.70
49132;DHT22;35149;51.196;6.204;2023-04-24T02:08:03;13.40;62.70
49132;DHT22;35149;51.196;6.204;2023-04-24T02:10:43;13.40;63.00
49132;DHT22;35149;51.196;6.204;2023-04-24T02:13:15;13.40;63.00
49132;DHT22;35149;51.196;6.204;2023-04-24T02:16:07;13.40;63.00
49132;DHT22;35149;51.196;6.204;2023-04-24T02:18:44;13.40;63.10
49132;DHT22;35149;51.196;6.204;2023-04-24T02:21:21;13.40;63.00
49132;DHT22;35149;51.196;6.204;2023-04-24T02:23:55;13.40;63.00
49132;DHT22;35149;51.196;6.204;2023-04-24T02:26:30;13.40;63.00
49132;DHT22;35149;51.196;6.204;2023-04-24T02:28:58;13.40;63.20
49132;DHT22;35149;51.196;6.204;2023-04-24T02:31:31;13.40;63.00
49132;DHT22;35149;51.196;6.204;2023-04-24T02:34:00;13.40;63.00
49132;DHT22;35149;51.196;6.204;2023-04-24T02:36:36;13.40;63.10
49132;DHT22;35149;51.196;6.204;2023-04-24T02:39:10;13.40;63.20
49132;DHT22;35149;51.196;6.204;2023-04-24T02:41:49;13.40;63.20
49132;DHT22;35149;51.196;6.204;2023-04-24T02:44:18;13.40;63.40
49132;DHT22;35149;51.196;6.204;2023-04-24T02:46:48;13.40;63.30
49132;DHT22;35149;51.196;6.204;2023-04-24T02:49:15;13.40;63.30
49132;DHT22;35149;51.196;6.204;2023-04-24T02:52:02;13.40;63.10
49132;DHT22;35149;51.196;6.204;2023-04-24T02:54:41;13.40;63.00
49132;DHT22;35149;51.196;6.204;2023-04-24T02:57:13;13.40;63.20
49132;DHT22;35149;51.196;6.204;2023-04-24T02:59:52;13.40;63.30
49132;DHT22;35149;51.196;6.204;2023-04-24T03:02:29;13.30;63.20
49132;DHT22;35149;51.196;6.204;2023-04-24T03:05:13;13.30;63.10
49132;DHT22;35149;51.196;6.204;2023-04-24T03:07:42;13.30;63.20
49132;DHT22;35149;51.196;6.204;2023-04-24T03:10:25;13.30;63.30
49132;DHT22;35149;51.196;6.204;2023-04-24T03:13:12;13.30;63.20
49132;DHT22;35149;51.196;6.204;2023-04-24T03:15:48;13.30;63.30
49132;DHT22;35149;51.196;6.204;2023-04-24T03:18:23;13.30;63.30
49132;DHT22;35149;51.196;6.204;2023-04-24T03:21:12;13.30;63.20
49132;DHT22;35149;51.196;6.204;2023-04-24T03:23:43;13.30;63.30
49132;DHT22;35149;51.196;6.204;2023-04-24T03:26:12;13.40;63.50
49132;DHT22;35149;51.196;6.204;2023-04-24T03:28:53;13.30;63.30
49132;DHT22;35149;51.196;6.204;2023-04-24T03:31:33;13.30;63.30
49132;DHT22;35149;51.196;6.204;2023-04-24T03:34:09;13.30;63.40
49132;DHT22;35149;51.196;6.204;2023-04-24T03:36:46;13.30;63.40
49132;DHT22;35149;51.196;6.204;2023-04-24T03:39:42;13.30;63.40
49132;DHT22;35149;51.196;6.204;2023-04-24T03:42:16;13.30;63.30
49132;DHT22;35149;51.196;6.204;2023-04-24T03:44:54;13.30;63.30
49132;DHT22;35149;51.196;6.204;2023-04-24T03:47:31;13.30;63.20
49132;DHT22;35149;51.196;6.204;2023-04-24T03:50:07;13.30;63.00
49132;DHT22;35149;51.196;6.204;2023-04-24T03:52:52;13.30;63.00
49132;DHT22;35149;51.196;6.204;2023-04-24T03:55:34;13.20;63.00
49132;DHT22;35149;51.196;6.204;2023-04-24T03:58:11;13.30;63.20
49132;DHT22;35149;51.196;6.204;2023-04-24T04:00:51;13.20;63.20
49132;DHT22;35149;51.196;6.204;2023-04-24T04:03:46;13.20;63.20
49132;DHT22;35149;51.196;6.204;2023-04-24T04:06:24;13.20;63.20
49132;DHT22;35149;51.196;6.204;2023-04-24T04:08:58;13.20;63.00
49132;DHT22;35149;51.196;6.204;2023-04-24T04:11:37;13.20;63.10
49132;DHT22;35149;51.196;6.204;2023-04-24T04:14:06;13.20;63.20
49132;DHT22;35149;51.196;6.204;2023-04-24T04:16:38;13.10;63.20
49132;DHT22;35149;51.196;6.204;2023-04-24T04:19:09;13.10;63.30
49132;DHT22;35149;51.196;6.204;2023-04-24T04:21:40;13.10;63.50
49132;DHT22;35149;51.196;6.204;2023-04-24T04:24:29;13.10;63.70
49132;DHT22;35149;51.196;6.204;2023-04-24T04:27:20;13.00;64.00
49132;DHT22;35149;51.196;6.204;2023-04-24T04:29:55;13.00;64.80
49132;DHT22;35149;51.196;6.204;2023-04-24T04:32:23;12.90;64.20
49132;DHT22;35149;51.196;6.204;2023-04-24T04:34:50;12.90;64.50
49132;DHT22;35149;51.196;6.204;2023-04-24T04:37:21;12.90;64.70
49132;DHT22;35149;51.196;6.204;2023-04-24T04:40:08;12.80;64.60
49132;DHT22;35149;51.196;6.204;2023-04-24T04:42:46;12.80;64.80
49132;DHT22;35149;51.196;6.204;2023-04-24T04:45:14;12.80;65.00
49132;DHT22;35149;51.196;6.204;2023-04-24T04:48:03;12.70;65.40
49132;DHT22;35149;51.196;6.204;2023-04-24T04:50:35;12.70;65.60
49132;DHT22;35149;51.196;6.204;2023-04-24T04:53:06;12.70;65.80
49132;DHT22;35149;51.196;6.204;2023-04-24T04:55:39;12.70;65.70
49132;DHT22;35149;51.196;6.204;2023-04-24T04:58:17;12.60;66.00
49132;DHT22;35149;51.196;6.204;2023-04-24T05:00:45;12.60;66.00
49132;DHT22;35149;51.196;6.204;2023-04-24T05:03:22;12.60;66.00
49132;DHT22;35149;51.196;6.204;2023-04-24T05:05:57;12.60;66.00
49132;DHT22;35149;51.196;6.204;2023-04-24T05:08:26;12.50;66.00
49132;DHT22;35149;51.196;6.204;2023-04-24T05:10:55;12.50;66.20
49132;DHT22;35149;51.196;6.204;2023-04-24T05:13:26;12.50;66.30
49132;DHT22;35149;51.196;6.204;2023-04-24T05:16:16;12.50;66.60
49132;DHT22;35149;51.196;6.204;2023-04-24T05:18:49;12.50;67.00
49132;DHT22;35149;51.196;6.204;2023-04-24T05:21:20;12.50;67.20
49132;DHT22;35149;51.196;6.204;2023-04-24T05:23:50;12.50;67.20
49132;DHT22;35149;51.196;6.204;2023-04-24T05:26:27;12.60;67.50
49132;DHT22;35149;51.196;6.204;2023-04-24T05:28:58;12.60;67.50
49132;DHT22;35149;51.196;6.204;2023-04-24T05:31:27;12.60;67.50
49132;DHT22;35149;51.196;6.204;2023-04-24T05:33:54;12.60;67.60
49132;DHT22;35149;51.196;6.204;2023-04-24T05:36:21;12.70;67.70
49132;DHT22;35149;51.196;6.204;2023-04-24T05:38:48;12.70;67.60
49132;DHT22;35149;51.196;6.204;2023-04-24T05:41:15;12.70;67.50
49132;DHT22;35149;51.196;6.204;2023-04-24T05:43:41;12.70;67.50
49132;DHT22;35149;51.196;6.204;2023-04-24T05:46:09;12.60;67.80
49132;DHT22;35149;51.196;6.204;2023-04-24T05:48:36;12.60;67.90
49132;DHT22;35149;51.196;6.204;2023-04-24T05:51:06;12.60;67.90
49132;DHT22;35149;51.196;6.204;2023-04-24T05:53:33;12.50;68.00
49132;DHT22;35149;51.196;6.204;2023-04-24T05:56:00;12.50;68.20
49132;DHT22;35149;51.196;6.204;2023-04-24T05:58:31;12.40;68.20
49132;DHT22;35149;51.196;6.204;2023-04-24T06:00:58;12.40;68.40
49132;DHT22;35149;51.196;6.204;2023-04-24T06:03:28;12.30;68.60
49132;DHT22;35149;51.196;6.204;2023-04-24T06:05:55;12.30;68.90
49132;DHT22;35149;51.196;6.204;2023-04-24T06:08:23;12.20;68.90
49132;DHT22;35149;51.196;6.204;2023-04-24T06:10:53;12.20;69.10
49132;DHT22;35149;51.196;6.204;2023-04-24T06:13:21;12.20;69.30
49132;DHT22;35149;51.196;6.204;2023-04-24T06:16:11;12.10;69.40
49132;DHT22;35149;51.196;6.204;2023-04-24T06:18:40;12.10;69.50
49132;DHT22;35149;51.196;6.204;2023-04-24T06:21:07;12.10;69.60
49132;DHT22;35149;51.196;6.204;2023-04-24T06:23:36;12.10;70.40
49132;DHT22;35149;51.196;6.204;2023-04-24T06:26:05;12.10;69.80
49132;DHT22;35149;51.196;6.204;2023-04-24T06:28:31;12.00;70.00
49132;DHT22;35149;51.196;6.204;2023-04-24T06:30:58;12.00;70.10
49132;DHT22;35149;51.196;6.204;2023-04-24T06:33:25;12.00;70.10
49132;DHT22;35149;51.196;6.204;2023-04-24T06:35:54;12.00;70.20
49132;DHT22;35149;51.196;6.204;2023-04-24T06:38:23;12.00;70.90
49132;DHT22;35149;51.196;6.204;2023-04-24T06:40:49;11.90;70.30
49132;DHT22;35149;51.196;6.204;2023-04-24T06:43:18;11.90;70.40
49132;DHT22;35149;51.196;6.204;2023-04-24T06:45:46;11.90;70.40
49132;DHT22;35149;51.196;6.204;2023-04-24T06:48:15;11.80;70.70
49132;DHT22;35149;51.196;6.204;2023-04-24T06:50:44;11.80;70.50
49132;DHT22;35149;51.196;6.204;2023-04-24T06:53:14;11.80;70.60
49132;DHT22;35149;51.196;6.204;2023-04-24T06:55:41;11.70;71.10
49132;DHT22;35149;51.196;6.204;2023-04-24T06:58:08;11.60;71.50
49132;DHT22;35149;51.196;6.204;2023-04-24T07:00:35;11.60;71.50
49132;DHT22;35149;51.196;6.204;2023-04-24T07:03:01;11.50;71.60
49132;DHT22;35149;51.196;6.204;2023-04-24T07:05:33;11.40;71.90
49132;DHT22;35149;51.196;6.204;2023-04-24T07:08:05;11.30;72.30
49132;DHT22;35149;51.196;6.204;2023-04-24T07:10:37;11.20;72.80
49132;DHT22;35149;51.196;6.204;2023-04-24T07:13:03;11.10;73.30
49132;DHT22;35149;51.196;6.204;2023-04-24T07:15:31;11.00;73.70
49132;DHT22;35149;51.196;6.204;2023-04-24T07:18:01;11.00;74.00
49132;DHT22;35149;51.196;6.204;2023-04-24T07:20:32;10.90;74.30
49132;DHT22;35149;51.196;6.204;2023-04-24T07:23:00;10.90;74.60
49132;DHT22;35149;51.196;6.204;2023-04-24T07:25:26;10.90;74.80
49132;DHT22;35149;51.196;6.204;2023-04-24T07:27:57;10.80;75.10
49132;DHT22;35149;51.196;6.204;2023-04-24T07:30:24;10.80;75.30
49132;DHT22;35149;51.196;6.204;2023-04-24T07:32:51;10.80;75.50
49132;DHT22;35149;51.196;6.204;2023-04-24T07:35:22;10.80;75.90
49132;DHT22;35149;51.196;6.204;2023-04-24T07:37:50;10.80;76.00
49132;DHT22;35149;51.196;6.204;2023-04-24T07:40:20;10.80;76.30
49132;DHT22;35149;51.196;6.204;2023-04-24T07:42:50;10.80;76.40
49132;DHT22;35149;51.196;6.204;2023-04-24T07:45:16;10.80;76.60
49132;DHT22;35149;51.196;6.204;2023-04-24T07:47:43;10.80;76.90
49132;DHT22;35149;51.196;6.204;2023-04-24T07:50:12;10.80;77.00
49132;DHT22;35149;51.196;6.204;2023-04-24T07:52:39;10.80;77.30
49132;DHT22;35149;51.196;6.204;2023-04-24T07:55:06;10.80;77.50
49132;DHT22;35149;51.196;6.204;2023-04-24T07:57:33;10.80;78.00
49132;DHT22;35149;51.196;6.204;2023-04-24T08:00:00;10.90;78.10
49132;DHT22;35149;51.196;6.204;2023-04-24T08:02:37;11.00;78.20
49132;DHT22;35149;51.196;6.204;2023-04-24T08:05:04;11.00;78.10
49132;DHT22;35149;51.196;6.204;2023-04-24T08:07:33;11.00;78.00
49132;DHT22;35149;51.196;6.204;2023-04-24T08:10:03;11.00;78.10
49132;DHT22;35149;51.196;6.204;2023-04-24T08:12:30;11.00;78.00
49132;DHT22;35149;51.196;6.204;2023-04-24T08:14:59;11.00;78.00
49132;DHT22;35149;51.196;6.204;2023-04-24T08:17:25;11.00;78.10
49132;DHT22;35149;51.196;6.204;2023-04-24T08:19:52;11.00;78.20
49132;DHT22;35149;51.196;6.204;2023-04-24T08:22:28;11.00;78.30
49132;DHT22;35149;51.196;6.204;2023-04-24T08:24:58;11.00;78.40
49132;DHT22;35149;51.196;6.204;2023-04-24T08:27:28;11.00;78.60
49132;DHT22;35149;51.196;6.204;2023-04-24T08:29:57;11.00;78.70
49132;DHT22;35149;51.196;6.204;2023-04-24T08:32:23;11.00;78.80
49132;DHT22;35149;51.196;6.204;2023-04-24T08:34:50;11.00;78.90
49132;DHT22;35149;51.196;6.204;2023-04-24T08:37:23;11.00;78.90
49132;DHT22;35149;51.196;6.204;2023-04-24T08:39:50;11.00;79.00
49132;DHT22;35149;51.196;6.204;2023-04-24T08:42:18;11.00;78.80
49132;DHT22;35149;51.196;6.204;2023-04-24T08:44:45;11.00;78.80
49132;DHT22;35149;51.196;6.204;2023-04-24T08:47:16;11.00;78.80
49132;DHT22;35149;51.196;6.204;2023-04-24T08:49:44;11.00;78.80
49132;DHT22;35149;51.196;6.204;2023-04-24T08:52:12;11.00;78.90
49132;DHT22;35149;51.196;6.204;2023-04-24T08:54:40;11.00;79.10
49132;DHT22;35149;51.196;6.204;2023-04-24T08:57:10;11.00;79.20
49132;DHT22;35149;51.196;6.204;2023-04-24T08:59:38;10.90;79.50
49132;DHT22;35149;51.196;6.204;2023-04-24T09:02:04;10.90;79.70
49132;DHT22;35149;51.196;6.204;2023-04-24T09:04:33;10.90;79.90
49132;DHT22;35149;51.196;6.204;2023-04-24T09:07:03;11.00;80.20
49132;DHT22;35149;51.196;6.204;2023-04-24T09:09:34;11.00;80.30
49132;DHT22;35149;51.196;6.204;2023-04-24T09:12:02;11.00;80.40
49132;DHT22;35149;51.196;6.204;2023-04-24T09:14:30;11.00;80.50
49132;DHT22;35149;51.196;6.204;2023-04-24T09:16:58;11.10;80.60
49132;DHT22;35149;51.196;6.204;2023-04-24T09:19:25;11.10;80.80
49132;DHT22;35149;51.196;6.204;2023-04-24T09:21:52;11.10;81.00
49132;DHT22;35149;51.196;6.204;2023-04-24T09:24:20;11.10;81.30
49132;DHT22;35149;51.196;6.204;2023-04-24T09:26:56;11.20;81.50
49132;DHT22;35149;51.196;6.204;2023-04-24T09:29:30;11.20;82.20
49132;DHT22;35149;51.196;6.204;2023-04-24T09:31:58;11.30;82.10
49132;DHT22;35149;51.196;6.204;2023-04-24T09:34:27;11.30;82.00
49132;DHT22;35149;51.196;6.204;2023-04-24T09:36:54;11.40;82.30
49132;DHT22;35149;51.196;6.204;2023-04-24T09:39:20;11.50;82.80
49132;DHT22;35149;51.196;6.204;2023-04-24T09:42:05;11.50;83.20
49132;DHT22;35149;51.196;6.204;2023-04-24T09:44:34;11.70;84.80
49132;DHT22;35149;51.196;6.204;2023-04-24T09:47:01;11.70;83.90
49132;DHT22;35149;51.196;6.204;2023-04-24T09:49:30;11.80;83.90
49132;DHT22;35149;51.196;6.204;2023-04-24T09:52:05;11.90;83.60
49132;DHT22;35149;51.196;6.204;2023-04-24T09:54:34;12.00;85.00
49132;DHT22;35149;51.196;6.204;2023-04-24T09:57:07;12.00;81.60
49132;DHT22;35149;51.196;6.204;2023-04-24T09:59:34;12.10;81.10
49132;DHT22;35149;51.196;6.204;2023-04-24T10:02:19;12.00;80.70
49132;DHT22;35149;51.196;6.204;2023-04-24T10:04:56;12.00;81.30
49132;DHT22;35149;51.196;6.204;2023-04-24T10:07:26;12.00;81.60
49132;DHT22;35149;51.196;6.204;2023-04-24T10:09:53;11.90;81.50
49132;DHT22;35149;51.196;6.204;2023-04-24T10:12:21;11.90;81.60
49132;DHT22;35149;51.196;6.204;2023-04-24T10:14:50;11.90;81.60
49132;DHT22;35149;51.196;6.204;2023-04-24T10:17:18;11.90;81.80
49132;DHT22;35149;51.196;6.204;2023-04-24T10:19:47;11.90;82.10
49132;DHT22;35149;51.196;6.204;2023-04-24T10:22:15;12.00;82.30
49132;DHT22;35149;51.196;6.204;2023-04-24T10:24:43;12.00;82.60
49132;DHT22;35149;51.196;6.204;2023-04-24T10:27:13;12.00;82.40
49132;DHT22;35149;51.196;6.204;2023-04-24T10:29:43;12.10;82.70
49132;DHT22;35149;51.196;6.204;2023-04-24T10:32:10;12.10;82.60
49132;DHT22;35149;51.196;6.204;2023-04-24T10:34:39;12.10;82.40
49132;DHT22;35149;51.196;6.204;2023-04-24T10:37:06;12.20;82.30
49132;DHT22;35149;51.196;6.204;2023-04-24T10:39:35;12.20;82.30
49132;DHT22;35149;51.196;6.204;2023-04-24T10:42:16;12.20;82.60
49132;DHT22;35149;51.196;6.204;2023-04-24T10:44:47;12.30;83.40
49132;DHT22;35149;51.196;6.204;2023-04-24T10:47:15;12.30;83.30
49132;DHT22;35149;51.196;6.204;2023-04-24T10:49:42;12.40;83.90
49132;DHT22;35149;51.196;6.204;2023-04-24T10:52:09;12.50;84.70
49132;DHT22;35149;51.196;6.204;2023-04-24T10:59:51;12.90;85.30
49132;DHT22;35149;51.196;6.204;2023-04-24T11:02:39;13.00;84.70
49132;DHT22;35149;51.196;6.204;2023-04-24T11:05:15;13.10;84.40
49132;DHT22;35149;51.196;6.204;2023-04-24T11:08:14;13.20;83.60
49132;DHT22;35149;51.196;6.204;2023-04-24T11:10:54;13.30;83.00
49132;DHT22;35149;51.196;6.204;2023-04-24T11:13:26;13.40;82.00
49132;DHT22;35149;51.196;6.204;2023-04-24T11:18:44;13.50;80.60
49132;DHT22;35149;51.196;6.204;2023-04-24T11:21:17;13.50;79.20
49132;DHT22;35149;51.196;6.204;2023-04-24T11:23:45;13.60;79.50
49132;DHT22;35149;51.196;6.204;2023-04-24T11:26:18;13.60;79.60
49132;DHT22;35149;51.196;6.204;2023-04-24T11:28:50;13.60;79.30
49132;DHT22;35149;51.196;6.204;2023-04-24T11:31:35;13.60;79.00
49132;DHT22;35149;51.196;6.204;2023-04-24T11:34:12;13.70;78.80
49132;DHT22;35149;51.196;6.204;2023-04-24T11:36:46;13.70;78.60
49132;DHT22;35149;51.196;6.204;2023-04-24T11:39:22;13.80;78.50
49132;DHT22;35149;51.196;6.204;2023-04-24T11:41:50;13.90;78.40
49132;DHT22;35149;51.196;6.204;2023-04-24T11:44:22;14.00;77.50
49132;DHT22;35149;51.196;6.204;2023-04-24T11:46:57;14.00;75.60
49132;DHT22;35149;51.196;6.204;2023-04-24T11:49:28;14.10;73.90
49132;DHT22;35149;51.196;6.204;2023-04-24T11:52:04;14.10;73.00
49132;DHT22;35149;51.196;6.204;2023-04-24T11:54:34;14.10;72.50
49132;DHT22;35149;51.196;6.204;2023-04-24T11:57:07;14.10;72.40
49132;DHT22;35149;51.196;6.204;2023-04-24T11:59:36;14.10;72.00
49132;DHT22;35149;51.196;6.204;2023-04-24T12:02:06;14.10;70.70
49132;DHT22;35149;51.196;6.204;2023-04-24T12:04:40;14.00;69.50
49132;DHT22;35149;51.196;6.204;2023-04-24T12:07:10;14.00;69.40
49132;DHT22;35149;51.196;6.204;2023-04-24T12:09:59;14.00;69.10
49132;DHT22;35149;51.196;6.204;2023-04-24T12:12:29;14.00;68.10
49132;DHT22;35149;51.196;6.204;2023-04-24T12:14:58;13.90;68.00
49132;DHT22;35149;51.196;6.204;2023-04-24T12:17:31;13.90;67.30
49132;DHT22;35149;51.196;6.204;2023-04-24T12:20:06;13.80;66.80
49132;DHT22;35149;51.196;6.204;2023-04-24T12:22:53;13.90;67.00
49132;DHT22;35149;51.196;6.204;2023-04-24T12:25:26;13.80;67.40
49132;DHT22;35149;51.196;6.204;2023-04-24T12:28:09;13.80;67.20
49132;DHT22;35149;51.196;6.204;2023-04-24T12:30:46;13.80;66.30
49132;DHT22;35149;51.196;6.204;2023-04-24T12:33:19;13.70;66.10
49132;DHT22;35149;51.196;6.204;2023-04-24T12:35:50;13.70;66.20
49132;DHT22;35149;51.196;6.204;2023-04-24T12:38:22;13.80;67.70
49132;DHT22;35149;51.196;6.204;2023-04-24T12:41:16;13.80;67.30
49132;DHT22;35149;51.196;6.204;2023-04-24T12:43:52;13.90;67.00
49132;DHT22;35149;51.196;6.204;2023-04-24T12:46:21;14.00;67.60
49132;DHT22;35149;51.196;6.204;2023-04-24T12:48:50;14.20;67.80
49132;DHT22;35149;51.196;6.204;2023-04-24T12:51:18;14.30;67.30
49132;DHT22;35149;51.196;6.204;2023-04-24T12:53:44;14.50;66.90
49132;DHT22;35149;51.196;6.204;2023-04-24T12:56:11;14.60;66.70
49132;DHT22;35149;51.196;6.204;2023-04-24T12:58:46;14.80;66.30
49132;DHT22;35149;51.196;6.204;2023-04-24T13:01:13;14.90;65.80
49132;DHT22;35149;51.196;6.204;2023-04-24T13:03:42;15.00;65.40
49132;DHT22;35149;51.196;6.204;2023-04-24T13:06:11;15.00;64.60
49132;DHT22;35149;51.196;6.204;2023-04-24T13:08:39;15.00;64.30
49132;DHT22;35149;51.196;6.204;2023-04-24T13:11:06;15.00;64.30
49132;DHT22;35149;51.196;6.204;2023-04-24T13:13:33;15.00;63.70
49132;DHT22;35149;51.196;6.204;2023-04-24T13:16:00;14.90;63.20
49132;DHT22;35149;51.196;6.204;2023-04-24T13:18:29;14.80;63.10
49132;DHT22;35149;51.196;6.204;2023-04-24T13:20:58;14.70;63.00
49132;DHT22;35149;51.196;6.204;2023-04-24T13:23:30;14.60;63.00
49132;DHT22;35149;51.196;6.204;2023-04-24T13:25:57;14.40;62.60
49132;DHT22;35149;51.196;6.204;2023-04-24T13:28:27;14.30;62.80
49132;DHT22;35149;51.196;6.204;2023-04-24T13:30:54;14.30;63.30
49132;DHT22;35149;51.196;6.204;2023-04-24T13:33:21;14.20;63.60
49132;DHT22;35149;51.196;6.204;2023-04-24T13:35:52;14.10;63.60
49132;DHT22;35149;51.196;6.204;2023-04-24T13:38:21;14.20;63.20
49132;DHT22;35149;51.196;6.204;2023-04-24T13:40:49;14.20;63.70
49132;DHT22;35149;51.196;6.204;2023-04-24T13:43:18;14.20;62.60
49132;DHT22;35149;51.196;6.204;2023-04-24T13:45:49;14.20;62.90
49132;DHT22;35149;51.196;6.204;2023-04-24T13:48:16;14.20;62.60
49132;DHT22;35149;51.196;6.204;2023-04-24T13:50:49;14.20;62.20
49132;DHT22;35149;51.196;6.204;2023-04-24T13:53:16;14.30;63.20
49132;DHT22;35149;51.196;6.204;2023-04-24T13:55:45;14.30;62.90
49132;DHT22;35149;51.196;6.204;2023-04-24T13:58:14;14.40;62.90
49132;DHT22;35149;51.196;6.204;2023-04-24T14:00:43;14.50;63.00
49132;DHT22;35149;51.196;6.204;2023-04-24T14:03:15;14.60;62.60
49132;DHT22;35149;51.196;6.204;2023-04-24T14:05:45;14.80;62.70
49132;DHT22;35149;51.196;6.204;2023-04-24T14:08:14;15.00;62.80
49132;DHT22;35149;51.196;6.204;2023-04-24T14:10:41;15.20;62.80
49132;DHT22;35149;51.196;6.204;2023-04-24T14:13:12;15.40;61.20
49132;DHT22;35149;51.196;6.204;2023-04-24T14:15:40;15.60;60.80
49132;DHT22;35149;51.196;6.204;2023-04-24T14:18:07;15.70;59.80
49132;DHT22;35149;51.196;6.204;2023-04-24T14:20:35;15.90;59.00
49132;DHT22;35149;51.196;6.204;2023-04-24T14:23:01;16.00;59.10
49132;DHT22;35149;51.196;6.204;2023-04-24T14:25:29;16.20;59.50
49132;DHT22;35149;51.196;6.204;2023-04-24T14:28:00;16.40;59.10
49132;DHT22;35149;51.196;6.204;2023-04-24T14:30:31;16.60;58.20
49132;DHT22;35149;51.196;6.204;2023-04-24T14:33:00;17.00;59.00
49132;DHT22;35149;51.196;6.204;2023-04-24T14:35:27;17.40;58.80
49132;DHT22;35149;51.196;6.204;2023-04-24T14:38:00;18.00;58.20
49132;DHT22;35149;51.196;6.204;2023-04-24T14:40:28;18.60;58.40
49132;DHT22;35149;51.196;6.204;2023-04-24T14:43:17;19.30;58.40
49132;DHT22;35149;51.196;6.204;2023-04-24T14:45:46;20.30;57.40
49132;DHT22;35149;51.196;6.204;2023-04-24T14:48:12;21.20;55.10
49132;DHT22;35149;51.196;6.204;2023-04-24T14:50:41;22.00;52.70
49132;DHT22;35149;51.196;6.204;2023-04-24T14:53:08;22.80;51.20
49132;DHT22;35149;51.196;6.204;2023-04-24T14:55:38;23.50;48.70
49132;DHT22;35149;51.196;6.204;2023-04-24T14:58:05;24.10;47.20
49132;DHT22;35149;51.196;6.204;2023-04-24T15:00:36;24.60;45.50
49132;DHT22;35149;51.196;6.204;2023-04-24T15:03:03;25.00;44.40
49132;DHT22;35149;51.196;6.204;2023-04-24T15:05:32;25.10;42.30
49132;DHT22;35149;51.196;6.204;2023-04-24T15:08:01;24.90;40.80
49132;DHT22;35149;51.196;6.204;2023-04-24T15:10:28;24.50;40.90
49132;DHT22;35149;51.196;6.204;2023-04-24T15:12:56;24.10;40.30
49132;DHT22;35149;51.196;6.204;2023-04-24T15:15:24;23.60;41.00
49132;DHT22;35149;51.196;6.204;2023-04-24T15:17:51;23.40;42.40
49132;DHT22;35149;51.196;6.204;2023-04-24T15:20:23;23.30;42.60
49132;DHT22;35149;51.196;6.204;2023-04-24T15:22:49;23.40;43.70
49132;DHT22;35149;51.196;6.204;2023-04-24T15:25:22;23.70;43.90
49132;DHT22;35149;51.196;6.204;2023-04-24T15:27:48;24.20;43.60
49132;DHT22;35149;51.196;6.204;2023-04-24T15:30:15;24.60;43.50
49132;DHT22;35149;51.196;6.204;2023-04-24T15:32:44;25.00;42.40
49132;DHT22;35149;51.196;6.204;2023-04-24T15:35:11;25.60;42.20
49132;DHT22;35149;51.196;6.204;2023-04-24T15:37:38;26.00;41.50
49132;DHT22;35149;51.196;6.204;2023-04-24T15:40:05;26.30;40.90
49132;DHT22;35149;51.196;6.204;2023-04-24T15:42:34;26.40;39.00
49132;DHT22;35149;51.196;6.204;2023-04-24T15:45:00;26.20;38.30
49132;DHT22;35149;51.196;6.204;2023-04-24T15:47:27;25.80;37.60
49132;DHT22;35149;51.196;6.204;2023-04-24T15:49:55;25.30;37.40
49132;DHT22;35149;51.196;6.204;2023-04-24T15:52:23;24.70;37.30
49132;DHT22;35149;51.196;6.204;2023-04-24T15:55:00;24.30;38.30
49132;DHT22;35149;51.196;6.204;2023-04-24T15:57:26;24.00;39.40
49132;DHT22;35149;51.196;6.204;2023-04-24T15:59:56;24.00;40.40
49132;DHT22;35149;51.196;6.204;2023-04-24T16:02:26;24.20;41.00
49132;DHT22;35149;51.196;6.204;2023-04-24T16:04:55;24.50;41.20
49132;DHT22;35149;51.196;6.204;2023-04-24T16:07:23;24.80;41.60